createdAt,value
2018-11-11T00:01:32.184Z,9.73
2018-11-11T00:04:06.778Z,8.77
2018-11-11T00:06:41.015Z,10.53
2018-11-11T00:09:15.277Z,10.37
2018-11-11T00:11:49.537Z,9.87
2018-11-11T00:14:23.807Z,9.90
2018-11-11T00:16:58.040Z,9.67
2018-11-11T00:19:32.321Z,11.53
2018-11-11T00:22:06.742Z,10.43
2018-11-11T00:24:40.993Z,9.17
2018-11-11T00:27:15.269Z,9.13
2018-11-11T00:29:49.562Z,9.63
2018-11-11T00:32:23.865Z,9.33
2018-11-11T00:34:58.533Z,9.23
2018-11-11T00:37:32.827Z,9.73
2018-11-11T00:40:07.248Z,10.03
2018-11-11T00:42:41.579Z,10.03
2018-11-11T00:45:16.481Z,10.10
2018-11-11T00:47:50.738Z,10.17
2018-11-11T00:50:25.013Z,10.67
2018-11-11T00:52:59.281Z,9.70
2018-11-11T00:55:39.146Z,10.33
2018-11-11T00:58:13.539Z,9.60
2018-11-11T01:00:47.887Z,10.50
2018-11-11T01:03:22.136Z,10.67
2018-11-11T01:05:56.405Z,10.07
2018-11-11T01:08:30.697Z,10.70
2018-11-11T01:11:04.996Z,10.07
2018-11-11T01:13:39.404Z,10.27
2018-11-11T01:16:13.660Z,10.47
2018-11-11T01:18:47.945Z,9.97
2018-11-11T01:21:22.222Z,10.57
2018-11-11T01:23:56.467Z,10.10
2018-11-11T01:26:30.744Z,10.37
2018-11-11T01:29:05.306Z,10.13
2018-11-11T01:31:39.609Z,10.47
2018-11-11T01:34:13.883Z,9.93
2018-11-11T01:36:48.168Z,10.17
2018-11-11T01:39:22.457Z,10.70
2018-11-11T01:41:56.830Z,9.40
2018-11-11T01:44:31.090Z,10.23
2018-11-11T01:47:05.476Z,12.40
2018-11-11T01:49:39.765Z,11.20
2018-11-11T01:52:14.050Z,10.87
2018-11-11T01:54:48.321Z,11.77
2018-11-11T01:57:22.664Z,11.23
2018-11-11T01:59:56.913Z,10.67
2018-11-11T02:02:31.238Z,11.63
2018-11-11T02:05:06.727Z,10.70
2018-11-11T02:07:42.033Z,11.03
2018-11-11T02:10:16.334Z,11.00
2018-11-11T02:12:50.585Z,11.03
2018-11-11T02:15:24.855Z,11.60
2018-11-11T02:17:59.121Z,10.87
2018-11-11T02:20:33.358Z,10.20
2018-11-11T02:23:07.636Z,10.33
2018-11-11T02:25:41.907Z,11.17
2018-11-11T02:28:16.187Z,11.93
2018-11-11T02:30:50.446Z,11.30
2018-11-11T02:33:24.719Z,12.97
2018-11-11T02:35:59.025Z,11.90
2018-11-11T02:38:33.306Z,11.70
2018-11-11T02:41:08.047Z,12.53
2018-11-11T02:43:42.308Z,12.13
2018-11-11T02:46:16.577Z,11.10
2018-11-11T02:48:50.847Z,11.10
2018-11-11T02:51:25.094Z,11.00
2018-11-11T02:53:59.403Z,12.07
2018-11-11T02:56:33.671Z,11.77
2018-11-11T02:59:08.641Z,12.10
2018-11-11T03:01:42.882Z,12.07
2018-11-11T03:04:17.288Z,12.70
2018-11-11T03:06:51.514Z,12.87
2018-11-11T03:09:25.762Z,11.90
2018-11-11T03:12:00.003Z,11.40
2018-11-11T03:14:34.268Z,11.77
2018-11-11T03:17:08.579Z,11.90
2018-11-11T03:19:42.846Z,12.07
2018-11-11T03:22:17.082Z,13.60
2018-11-11T03:24:51.353Z,14.50
2018-11-11T03:27:25.659Z,13.37
2018-11-11T03:29:59.963Z,14.20
2018-11-11T03:32:34.195Z,13.10
2018-11-11T03:35:10.032Z,13.03
2018-11-11T03:37:45.062Z,12.87
2018-11-11T03:40:20.388Z,13.70
2018-11-11T03:42:54.630Z,13.00
2018-11-11T03:45:28.929Z,13.80
2018-11-11T03:48:03.229Z,13.10
2018-11-11T03:50:37.493Z,14.60
2018-11-11T03:53:11.763Z,13.73
2018-11-11T03:55:46.021Z,14.80
2018-11-11T03:58:20.275Z,14.10
2018-11-11T04:00:54.670Z,13.77
2018-11-11T04:03:28.921Z,14.67
2018-11-11T04:06:03.186Z,14.37
2018-11-11T04:08:37.439Z,14.43
2018-11-11T04:11:11.690Z,13.87
2018-11-11T04:13:45.983Z,14.47
2018-11-11T04:16:20.238Z,14.97
2018-11-11T04:18:54.493Z,13.87
2018-11-11T04:21:28.837Z,14.37
2018-11-11T04:24:03.087Z,13.57
2018-11-11T04:26:37.389Z,13.03
2018-11-11T04:29:11.656Z,14.77
2018-11-11T04:31:45.925Z,13.17
2018-11-11T04:34:20.148Z,15.13
2018-11-11T04:36:54.403Z,14.13
2018-11-11T04:39:28.655Z,15.80
2018-11-11T04:42:03.029Z,14.77
2018-11-11T04:44:37.300Z,15.40
2018-11-11T04:47:11.545Z,16.40
2018-11-11T04:49:45.783Z,16.63
2018-11-11T04:52:20.045Z,16.00
2018-11-11T04:54:54.303Z,14.97
2018-11-11T04:57:28.557Z,15.10
2018-11-11T05:00:02.867Z,15.87
2018-11-11T05:02:37.138Z,15.87
2018-11-11T05:05:12.571Z,15.87
2018-11-11T05:07:47.071Z,15.70
2018-11-11T05:10:21.310Z,14.77
2018-11-11T05:12:55.571Z,14.63
2018-11-11T05:15:29.826Z,15.37
2018-11-11T05:18:04.147Z,15.70
2018-11-11T05:20:38.434Z,15.20
2018-11-11T05:23:12.754Z,16.50
2018-11-11T05:25:47.037Z,17.60
2018-11-11T05:28:21.318Z,16.97
2018-11-11T05:30:55.574Z,16.50
2018-11-11T05:33:29.851Z,16.97
2018-11-11T05:36:04.155Z,17.07
2018-11-11T05:38:38.410Z,16.80
2018-11-11T05:41:12.694Z,16.73
2018-11-11T05:43:46.979Z,17.23
2018-11-11T05:46:21.347Z,17.73
2018-11-11T05:48:55.638Z,17.27
2018-11-11T05:51:29.973Z,18.30
2018-11-11T05:54:04.423Z,18.30
2018-11-11T05:56:38.666Z,17.43
2018-11-11T05:59:12.946Z,17.93
2018-11-11T06:01:47.241Z,20.03
2018-11-11T06:04:21.487Z,19.73
2018-11-11T06:06:55.745Z,17.77
2018-11-11T06:09:30.006Z,18.00
2018-11-11T06:12:04.263Z,17.67
2018-11-11T06:14:38.530Z,18.17
2018-11-11T06:17:12.797Z,17.43
2018-11-11T06:19:47.061Z,18.30
2018-11-11T06:22:21.313Z,18.37
2018-11-11T06:24:55.589Z,18.33
2018-11-11T06:27:29.863Z,14.67
2018-11-11T06:30:04.329Z,14.00
2018-11-11T06:32:38.597Z,14.40
2018-11-11T06:35:12.890Z,13.83
2018-11-11T06:37:47.150Z,14.10
2018-11-11T06:40:21.469Z,13.70
2018-11-11T06:42:55.774Z,13.03
2018-11-11T06:45:30.045Z,13.23
2018-11-11T06:48:04.428Z,13.70
2018-11-11T06:50:38.629Z,13.50
2018-11-11T06:53:12.893Z,14.30
2018-11-11T06:55:47.209Z,14.53
2018-11-11T06:58:21.481Z,15.63
2018-11-11T07:00:55.751Z,15.30
2018-11-11T07:04:00.294Z,15.30
2018-11-11T07:06:34.555Z,15.50
2018-11-11T07:09:08.801Z,14.77
2018-11-11T07:11:43.058Z,16.50
2018-11-11T07:14:17.358Z,15.33
2018-11-11T07:16:51.616Z,15.90
2018-11-11T07:19:25.862Z,15.73
2018-11-11T07:22:00.105Z,15.47
2018-11-11T07:24:34.370Z,15.00
2018-11-11T07:27:08.658Z,14.60
2018-11-11T07:29:43.264Z,14.90
2018-11-11T07:32:17.515Z,15.37
2018-11-11T07:34:51.763Z,16.00
2018-11-11T07:37:26.017Z,16.03
2018-11-11T07:40:00.339Z,16.50
2018-11-11T07:42:34.698Z,17.03
2018-11-11T07:45:08.896Z,16.53
2018-11-11T07:47:43.225Z,15.63
2018-11-11T07:50:17.451Z,17.27
2018-11-11T07:52:51.744Z,16.73
2018-11-11T07:55:25.965Z,17.13
2018-11-11T07:58:00.226Z,17.60
2018-11-11T08:00:34.487Z,16.60
2018-11-11T08:03:08.797Z,18.37
2018-11-11T08:05:43.060Z,18.07
2018-11-11T08:08:17.314Z,17.40
2018-11-11T08:11:02.703Z,17.23
2018-11-11T08:13:37.201Z,17.60
2018-11-11T08:16:11.490Z,28.97
2018-11-11T08:18:48.704Z,47.00
2018-11-11T08:21:22.963Z,27.37
2018-11-11T08:23:57.214Z,20.63
2018-11-11T08:26:31.459Z,19.47
2018-11-11T08:29:05.902Z,18.40
2018-11-11T08:31:40.431Z,18.37
2018-11-11T08:34:14.882Z,17.67
2018-11-11T08:36:49.204Z,18.07
2018-11-11T08:39:23.459Z,18.13
2018-11-11T08:41:57.742Z,18.80
2018-11-11T08:44:31.997Z,19.00
2018-11-11T08:47:06.322Z,17.83
2018-11-11T08:49:40.593Z,19.33
2018-11-11T08:52:14.865Z,17.67
2018-11-11T08:54:49.590Z,18.53
2018-11-11T08:57:23.846Z,19.23
2018-11-11T08:59:58.154Z,19.07
2018-11-11T09:02:32.422Z,18.93
2018-11-11T09:05:06.945Z,17.63
2018-11-11T09:07:41.197Z,18.50
2018-11-11T09:10:15.470Z,17.03
2018-11-11T09:12:49.769Z,16.07
2018-11-11T09:15:24.321Z,17.40
2018-11-11T09:17:58.577Z,17.83
2018-11-11T09:20:32.902Z,17.27
2018-11-11T09:23:07.186Z,16.40
2018-11-11T09:25:41.579Z,16.80
2018-11-11T09:28:15.901Z,16.97
2018-11-11T09:30:50.210Z,18.93
2018-11-11T09:33:25.535Z,17.50
2018-11-11T09:35:59.928Z,16.87
2018-11-11T09:38:34.394Z,17.13
2018-11-11T09:41:09.556Z,16.50
2018-11-11T09:43:44.008Z,17.60
2018-11-11T09:46:18.411Z,18.67
2018-11-11T09:48:52.729Z,19.30
2018-11-11T09:51:27.045Z,17.50
2018-11-11T09:54:01.385Z,17.40
2018-11-11T09:56:35.601Z,18.43
2018-11-11T09:59:10.359Z,17.90
2018-11-11T10:01:44.877Z,18.53
2018-11-11T10:04:24.439Z,19.30
2018-11-11T10:07:17.076Z,19.50
2018-11-11T10:09:57.791Z,18.77
2018-11-11T10:12:44.864Z,18.90
2018-11-11T10:15:24.701Z,18.33
2018-11-11T10:19:03.877Z,19.30
2018-11-11T10:23:48.097Z,19.73
2018-11-11T10:26:26.773Z,18.53
2018-11-11T10:30:05.109Z,19.60
2018-11-11T10:33:01.071Z,18.43
2018-11-11T10:35:39.773Z,19.00
2018-11-11T10:38:18.909Z,19.50
2018-11-11T10:41:03.276Z,18.70
2018-11-11T10:43:41.518Z,19.87
2018-11-11T10:46:22.229Z,18.93
2018-11-11T10:49:00.712Z,18.33
2018-11-11T10:51:35.465Z,19.10
2018-11-11T10:54:09.867Z,19.83
2018-11-11T10:56:48.043Z,19.23
2018-11-11T10:59:22.488Z,19.23
2018-11-11T11:02:02.138Z,20.10
2018-11-11T11:04:40.657Z,21.07
2018-11-11T11:07:15.068Z,19.63
2018-11-11T11:09:49.965Z,20.63
2018-11-11T11:12:24.328Z,20.37
2018-11-11T11:14:58.711Z,20.30
2018-11-11T11:17:33.062Z,18.57
2018-11-11T11:20:07.892Z,19.37
2018-11-11T11:22:42.250Z,19.70
2018-11-11T11:25:16.561Z,19.40
2018-11-11T11:27:50.868Z,19.53
2018-11-11T11:30:25.246Z,18.87
2018-11-11T11:32:59.503Z,19.50
2018-11-11T11:35:33.811Z,19.03
2018-11-11T11:38:08.154Z,18.53
2018-11-11T11:40:42.446Z,18.50
2018-11-11T11:43:16.693Z,18.10
2018-11-11T11:45:50.959Z,17.03
2018-11-11T11:48:25.229Z,17.10
2018-11-11T11:50:59.562Z,17.37
2018-11-11T11:53:33.825Z,17.60
2018-11-11T11:56:08.085Z,17.87
2018-11-11T11:58:42.338Z,17.33
2018-11-11T12:01:16.605Z,16.57
2018-11-11T12:03:50.898Z,16.43
2018-11-11T12:06:25.233Z,16.33
2018-11-11T12:08:59.569Z,16.20
2018-11-11T12:11:33.757Z,16.93
2018-11-11T12:14:08.194Z,16.57
2018-11-11T12:16:42.535Z,16.70
2018-11-11T12:19:22.167Z,14.83
2018-11-11T12:21:56.421Z,16.03
2018-11-11T12:24:30.749Z,16.53
2018-11-11T12:27:05.505Z,16.83
2018-11-11T12:29:39.827Z,16.30
2018-11-11T12:32:14.209Z,15.93
2018-11-11T12:34:48.526Z,15.80
2018-11-11T12:37:22.881Z,15.37
2018-11-11T12:39:57.230Z,16.03
2018-11-11T12:42:31.387Z,16.73
2018-11-11T12:45:06.715Z,15.67
2018-11-11T12:47:40.970Z,16.20
2018-11-11T12:50:15.375Z,16.03
2018-11-11T12:52:49.638Z,15.70
2018-11-11T12:55:23.960Z,15.57
2018-11-11T12:57:58.259Z,15.90
2018-11-11T13:00:32.556Z,13.10
2018-11-11T13:03:06.865Z,13.40
2018-11-11T13:05:41.113Z,13.57
2018-11-11T13:08:15.393Z,13.07
2018-11-11T13:10:49.662Z,14.10
2018-11-11T13:13:23.927Z,13.80
2018-11-11T13:15:58.269Z,13.40
2018-11-11T13:18:32.977Z,14.00
2018-11-11T13:21:07.364Z,14.20
2018-11-11T13:23:50.053Z,13.60
2018-11-11T13:26:24.342Z,14.87
2018-11-11T13:28:58.650Z,41.50
2018-11-11T13:31:32.918Z,30.30
2018-11-11T13:34:07.210Z,20.17
2018-11-11T13:36:41.573Z,19.40
2018-11-11T13:39:15.857Z,17.30
2018-11-11T13:41:50.137Z,17.50
2018-11-11T13:44:24.519Z,16.40
2018-11-11T13:46:59.309Z,16.33
2018-11-11T13:49:33.603Z,16.27
2018-11-11T13:52:07.874Z,14.70
2018-11-11T13:54:42.159Z,15.30
2018-11-11T13:57:16.413Z,15.00
2018-11-11T13:59:50.708Z,13.50
2018-11-11T14:02:24.954Z,13.80
2018-11-11T14:04:59.306Z,13.67
2018-11-11T14:07:33.562Z,14.07
2018-11-11T14:10:09.350Z,13.80
2018-11-11T14:12:43.623Z,12.30
2018-11-11T14:15:20.448Z,12.93
2018-11-11T14:17:55.506Z,13.93
2018-11-11T14:20:29.791Z,15.07
2018-11-11T14:23:04.018Z,12.27
2018-11-11T14:25:38.306Z,12.70
2018-11-11T14:28:12.681Z,11.83
2018-11-11T14:30:46.996Z,13.00
2018-11-11T14:33:22.666Z,12.67
2018-11-11T14:35:56.921Z,13.67
2018-11-11T14:38:31.240Z,12.73
2018-11-11T14:41:05.945Z,12.97
2018-11-11T14:43:40.243Z,12.07
2018-11-11T14:46:14.596Z,13.30
2018-11-11T14:48:48.864Z,13.57
2018-11-11T14:51:23.206Z,13.80
2018-11-11T14:53:57.465Z,14.17
2018-11-11T14:56:31.988Z,13.80
2018-11-11T14:59:06.281Z,14.73
2018-11-11T15:01:40.601Z,16.33
2018-11-11T15:04:15.026Z,17.90
2018-11-11T15:06:49.345Z,19.00
2018-11-11T15:09:23.758Z,19.80
2018-11-11T15:12:06.411Z,19.50
2018-11-11T15:14:40.807Z,19.13
2018-11-11T15:17:15.262Z,20.17
2018-11-11T15:19:49.679Z,18.60
2018-11-11T15:22:27.006Z,18.10
2018-11-11T15:25:03.403Z,17.63
2018-11-11T15:27:37.970Z,17.83
2018-11-11T15:33:36.026Z,17.53
2018-11-11T15:36:11.547Z,17.33
2018-11-11T15:38:45.796Z,17.77
2018-11-11T15:41:20.241Z,17.70
2018-11-11T15:43:54.495Z,18.33
2018-11-11T15:46:28.769Z,18.67
2018-11-11T15:49:03.282Z,18.87
2018-11-11T15:51:38.416Z,19.60
2018-11-11T15:54:13.410Z,19.53
2018-11-11T15:56:47.701Z,18.93
2018-11-11T15:59:22.029Z,21.97
2018-11-11T16:01:56.255Z,22.70
2018-11-11T16:04:30.553Z,21.70
2018-11-11T16:07:04.838Z,21.33
2018-11-11T16:09:39.141Z,20.13
2018-11-11T16:12:13.414Z,21.77
2018-11-11T16:14:47.679Z,20.87
2018-11-11T16:17:21.936Z,21.97
2018-11-11T16:19:56.344Z,21.90
2018-11-11T16:22:30.482Z,21.63
2018-11-11T16:25:05.323Z,19.93
2018-11-11T16:27:40.620Z,21.00
2018-11-11T16:30:20.014Z,21.43
2018-11-11T16:32:55.110Z,21.87
2018-11-11T16:35:30.141Z,21.50
2018-11-11T16:38:04.648Z,21.70
2018-11-11T16:40:39.382Z,21.33
2018-11-11T16:43:13.737Z,20.70
2018-11-11T16:45:48.016Z,20.83
2018-11-11T16:48:35.745Z,20.00
2018-11-11T16:51:10.159Z,20.90
2018-11-11T16:53:44.407Z,20.70
2018-11-11T16:56:18.753Z,20.87
2018-11-11T16:58:53.102Z,21.37
2018-11-11T17:01:31.289Z,22.03
2018-11-11T17:04:05.753Z,23.73
2018-11-11T17:06:40.058Z,23.20
2018-11-11T17:09:14.906Z,21.70
2018-11-11T17:11:49.171Z,25.27
2018-11-11T17:14:24.061Z,24.77
2018-11-11T17:16:58.421Z,22.50
2018-11-11T17:19:32.673Z,22.13
2018-11-11T17:22:07.250Z,21.43
2018-11-11T17:24:41.626Z,20.77
2018-11-11T17:27:15.930Z,21.73
2018-11-11T17:29:50.277Z,25.73
2018-11-11T17:32:24.597Z,24.60
2018-11-11T17:34:58.766Z,28.60
2018-11-11T17:37:33.029Z,20.40
2018-11-11T17:40:10.018Z,22.13
2018-11-11T17:42:45.561Z,22.03
2018-11-11T17:45:20.045Z,22.50
2018-11-11T17:47:54.512Z,24.33
2018-11-11T17:50:31.140Z,26.07
2018-11-11T17:53:06.346Z,21.03
2018-11-11T17:55:40.661Z,19.63
2018-11-11T17:58:14.971Z,19.80
2018-11-11T18:00:49.252Z,21.43
2018-11-11T18:03:23.595Z,21.27
2018-11-11T18:05:57.853Z,20.57
2018-11-11T18:08:32.227Z,19.50
2018-11-11T18:11:06.515Z,20.53
2018-11-11T18:13:40.793Z,21.23
2018-11-11T18:16:15.128Z,21.10
2018-11-11T18:18:49.419Z,20.70
2018-11-11T18:21:23.695Z,20.43
2018-11-11T18:23:58.067Z,20.17
2018-11-11T18:26:32.509Z,20.57
2018-11-11T18:29:06.774Z,20.60
2018-11-11T18:31:41.063Z,19.97
2018-11-11T18:34:15.380Z,19.93
2018-11-11T18:36:49.859Z,20.30
2018-11-11T18:39:25.241Z,20.40
2018-11-11T18:41:59.535Z,19.87
2018-11-11T18:44:33.802Z,19.83
2018-11-11T18:47:08.096Z,19.57
2018-11-11T18:49:42.397Z,19.87
2018-11-11T18:52:16.697Z,20.40
2018-11-11T18:54:50.995Z,19.67
2018-11-11T18:57:25.367Z,19.17
2018-11-11T18:59:59.568Z,18.90
2018-11-11T19:02:33.875Z,19.03
2018-11-11T19:05:09.662Z,19.67
2018-11-11T19:07:44.131Z,19.20
2018-11-11T19:10:20.597Z,19.47
2018-11-11T19:12:56.395Z,17.90
2018-11-11T19:15:30.789Z,18.97
2018-11-11T19:18:05.499Z,17.83
2018-11-11T19:20:39.863Z,18.03
2018-11-11T19:23:14.182Z,19.83
2018-11-11T19:25:48.538Z,18.57
2018-11-11T19:28:22.847Z,20.27
2018-11-11T19:30:57.120Z,19.53
2018-11-11T19:33:31.463Z,18.10
2018-11-11T19:36:05.793Z,20.83
2018-11-11T19:38:40.154Z,28.03
2018-11-11T19:41:14.668Z,23.47
2018-11-11T19:43:48.958Z,42.33
2018-11-11T19:46:23.263Z,20.13
2018-11-11T19:48:57.536Z,27.10
2018-11-11T19:51:31.826Z,33.93
2018-11-11T19:54:06.179Z,29.93
2018-11-11T19:56:40.576Z,25.70
2018-11-11T19:59:14.864Z,24.00
2018-11-11T20:01:49.141Z,23.40
2018-11-11T20:04:23.485Z,23.03
2018-11-11T20:06:57.857Z,23.10
2018-11-11T20:09:32.125Z,21.37
2018-11-11T20:12:06.379Z,20.47
2018-11-11T20:14:40.646Z,19.83
2018-11-11T20:17:14.901Z,19.90
2018-11-11T20:19:49.171Z,19.37
2018-11-11T20:22:23.448Z,20.60
2018-11-11T20:24:57.710Z,18.80
2018-11-11T20:27:31.994Z,17.90
2018-11-11T20:30:09.313Z,19.10
2018-11-11T20:32:43.737Z,18.30
2018-11-11T20:35:20.247Z,20.10
2018-11-11T20:37:54.470Z,19.50
2018-11-11T20:40:29.125Z,19.70
2018-11-11T20:43:03.427Z,19.03
2018-11-11T20:45:37.674Z,16.73
2018-11-11T20:48:11.963Z,16.43
2018-11-11T20:50:47.331Z,15.70
2018-11-11T20:53:21.702Z,17.10
2018-11-11T20:55:56.919Z,16.43
2018-11-11T20:58:31.182Z,16.57
2018-11-11T21:01:05.717Z,17.53
2018-11-11T21:03:40.614Z,16.50
2018-11-11T21:06:14.869Z,15.80
2018-11-11T21:08:49.161Z,16.10
2018-11-11T21:11:23.484Z,18.37
2018-11-11T21:13:57.790Z,18.83
2018-11-11T21:16:32.058Z,18.07
2018-11-11T21:19:07.055Z,17.27
2018-11-11T21:21:41.387Z,16.37
2018-11-11T21:24:15.765Z,18.33
2018-11-11T21:26:50.372Z,18.50
2018-11-11T21:29:24.867Z,18.30
2018-11-11T21:31:59.392Z,18.30
2018-11-11T21:34:33.680Z,18.47
2018-11-11T21:37:07.953Z,20.43
2018-11-11T21:39:42.254Z,21.47
2018-11-11T21:42:16.528Z,20.40
2018-11-11T21:44:50.859Z,20.67
2018-11-11T21:47:25.057Z,20.53
2018-11-11T21:49:59.323Z,20.70
2018-11-11T21:52:33.614Z,22.40
2018-11-11T21:55:08.178Z,21.30
2018-11-11T21:57:42.715Z,20.40
2018-11-11T22:00:17.446Z,20.40
2018-11-11T22:02:51.729Z,20.57
2018-11-11T22:05:26.054Z,20.37
2018-11-11T22:08:00.278Z,19.07
2018-11-11T22:10:34.593Z,20.43
2018-11-11T22:13:08.881Z,19.97
2018-11-11T22:15:43.187Z,20.97
2018-11-11T22:18:17.711Z,21.37
2018-11-11T22:20:52.109Z,19.47
2018-11-11T22:23:26.389Z,20.47
2018-11-11T22:26:00.655Z,20.27
2018-11-11T22:28:34.937Z,20.40
2018-11-11T22:31:09.439Z,19.17
2018-11-11T22:33:43.689Z,19.97
2018-11-11T22:36:17.933Z,20.97
2018-11-11T22:38:52.178Z,20.27
2018-11-11T22:41:26.477Z,20.70
2018-11-11T22:44:00.788Z,19.67
2018-11-11T22:46:35.044Z,20.13
2018-11-11T22:49:09.269Z,19.70
2018-11-11T22:51:43.526Z,19.73
2018-11-11T22:54:17.803Z,20.27
2018-11-11T22:56:52.133Z,20.33
2018-11-11T22:59:26.408Z,20.10
2018-11-11T23:02:00.702Z,20.30
2018-11-11T23:04:34.970Z,18.70
2018-11-11T23:07:09.285Z,18.90
2018-11-11T23:09:43.602Z,18.27
2018-11-11T23:12:17.974Z,20.17
2018-11-11T23:14:52.266Z,18.80
2018-11-11T23:17:26.548Z,19.37
2018-11-11T23:20:00.812Z,20.30
2018-11-11T23:22:35.107Z,20.37
2018-11-11T23:25:11.318Z,20.87
2018-11-11T23:27:45.617Z,21.63
2018-11-11T23:30:21.131Z,22.17
2018-11-11T23:32:55.401Z,20.53
2018-11-11T23:35:29.641Z,21.17
2018-11-11T23:38:03.961Z,22.07
2018-11-11T23:40:38.234Z,21.70
2018-11-11T23:43:12.506Z,22.57
2018-11-11T23:45:46.790Z,22.93
2018-11-11T23:48:21.066Z,22.90
2018-11-11T23:50:55.326Z,21.57
2018-11-11T23:53:29.613Z,21.77
2018-11-11T23:56:03.881Z,21.20
2018-11-11T23:58:38.131Z,22.17
